Terminal Aerodrome Forecast
Issued by NWS

Home | Current Version | Previous Version | Graphics & Text | Print | Product List | Glossary On
Versions: 1 2 3 4 5 6 7 8 9 10 11 12 13 14 15 16 17
000
FTUS43 KMPX 140945 AAA
TAFAXN
TAF AMD
KAXN 140945Z 1410/1506 17010KT P6SM BKN025
     FM141200 17012KT 4SM -SHSN BKN025 OVC035
     FM141700 20012KT 3/4SM -SN BR VV006
     FM142200 32013G22KT 4SM -SN BLSN OVC022
     FM150200 34016G25KT 6SM BLSN SKC=

USA.gov is the U.S. government's official web portal to all federal, state and local government web resources and services.